Time;durP1;ratioP1;P1;durP2;ratioP2;P2;SDS_P1;SDS_P2;PMS_P1;PMS_P2;Temp;Humidity;BMP_temperature;BMP_pressure;BME280_temperature;BME280_humidity;BME280_pressure;Samples;Min_cycle;Max_cycle;Signal;HPM_P1;HPM_P2
2023/04/18 00:02:07;;;;;;;24.57;14.73;;;;;;;-145.18;100.00;46709.22;6182786;23;20231;-68
2023/04/18 00:04:33;;;;;;;31.80;15.57;;;;;;;-145.18;100.00;46713.13;6151847;23;20083;-68
2023/04/18 00:06:58;;;;;;;31.43;15.90;;;;;;;-145.18;100.00;46711.19;6151246;23;20618;-68
2023/04/18 00:09:24;;;;;;;31.10;16.43;;;;;;;-145.18;100.00;46707.28;6153533;23;20036;-68
2023/04/18 00:11:50;;;;;;;29.73;15.60;;;;;;;-145.18;100.00;46711.19;6153762;23;20017;-68
2023/04/18 00:14:16;;;;;;;34.23;17.33;;;;;;;-145.18;100.00;46713.13;6153215;23;20033;-68
2023/04/18 00:16:42;;;;;;;29.70;15.63;;;;;;;-145.18;100.00;46709.22;6153117;23;20236;-68
2023/04/18 00:19:07;;;;;;;27.87;16.23;;;;;;;-145.18;100.00;46713.13;6153712;23;20018;-68
2023/04/18 00:21:33;;;;;;;30.47;15.30;;;;;;;-145.18;100.00;46705.31;6153221;23;20092;-68
2023/04/18 00:23:59;;;;;;;29.40;16.60;;;;;;;-145.18;100.00;46709.22;6153289;23;20018;-68
2023/04/18 00:26:25;;;;;;;30.87;16.80;;;;;;;-145.18;100.00;46711.19;6153272;23;20240;-68
2023/04/18 00:28:50;;;;;;;28.23;15.93;;;;;;;-145.18;100.00;46705.31;6153235;23;20015;-67
2023/04/18 00:31:15;;;;;;;27.33;15.60;;;;;;;-145.18;100.00;46705.31;6152998;23;20787;-68
2023/04/18 00:33:41;;;;;;;26.70;15.67;;;;;;;-145.18;100.00;46705.31;6153310;23;20033;-68
2023/04/18 00:36:06;;;;;;;30.50;16.07;;;;;;;-145.18;100.00;46709.22;6152919;23;20089;-68
2023/04/18 00:38:32;;;;;;;29.73;15.47;;;;;;;-145.18;100.00;46705.31;6153098;23;20013;-68
2023/04/18 00:40:57;;;;;;;30.10;14.77;;;;;;;-145.18;100.00;46709.22;6153103;23;20009;-67
2023/04/18 00:43:23;;;;;;;30.80;14.87;;;;;;;-145.18;100.00;46709.22;6153075;23;20010;-68
2023/04/18 00:45:48;;;;;;;25.63;14.50;;;;;;;-145.18;100.00;46707.28;6153446;23;20001;-68
2023/04/18 00:48:14;;;;;;;28.33;16.10;;;;;;;-145.18;100.00;46713.13;6151921;23;20286;-68
2023/04/18 00:50:40;;;;;;;30.73;15.50;;;;;;;-145.18;100.00;46713.13;6153317;23;20055;-68
2023/04/18 00:53:07;;;;;;;25.50;15.20;;;;;;;-145.18;100.00;46715.09;6152611;23;20029;-68
2023/04/18 00:55:33;;;;;;;29.47;14.23;;;;;;;-145.18;100.00;46713.13;6153179;23;20044;-67
2023/04/18 00:57:59;;;;;;;27.27;14.97;;;;;;;-145.18;100.00;46717.03;6152754;23;20231;-68
2023/04/18 01:00:24;;;;;;;21.60;12.60;;;;;;;-145.18;100.00;46713.13;6152937;23;20716;-68
2023/04/18 01:02:51;;;;;;;25.93;13.60;;;;;;;-145.18;100.00;46713.13;6153906;23;20467;-68
2023/04/18 01:05:17;;;;;;;21.17;12.30;;;;;;;-145.18;100.00;46709.22;6182385;23;20019;-68
2023/04/18 01:07:43;;;;;;;22.03;12.30;;;;;;;-145.18;100.00;46687.75;6182353;23;20326;-68
2023/04/18 01:10:09;;;;;;;20.00;11.37;;;;;;;-145.18;100.00;46660.41;6182871;23;20016;-68
2023/04/18 01:12:36;;;;;;;22.23;10.90;;;;;;;-145.18;100.00;46635.00;6182291;23;20515;-68
2023/04/18 01:15:06;;;;;;;20.10;11.07;;;;;;;-145.18;100.00;46623.28;6182574;23;20297;-68
2023/04/18 01:17:33;;;;;;;27.57;12.20;;;;;;;-145.18;100.00;46633.06;6182288;23;20223;-68
2023/04/18 01:20:00;;;;;;;23.03;12.77;;;;;;;-145.18;100.00;46633.06;6182501;23;20223;-68
2023/04/18 01:22:27;;;;;;;22.37;12.70;;;;;;;-145.18;100.00;46633.06;6182378;23;20227;-68
2023/04/18 01:24:52;;;;;;;24.90;13.17;;;;;;;-145.18;100.00;46633.06;6182623;23;20273;-68
2023/04/18 01:27:18;;;;;;;22.73;12.37;;;;;;;-145.18;100.00;46636.94;6181890;23;20677;-68
2023/04/18 01:29:43;;;;;;;22.87;11.77;;;;;;;-145.18;100.00;46635.00;6182553;23;20009;-68
2023/04/18 01:32:09;;;;;;;23.70;10.20;;;;;;;-145.18;100.00;46636.94;6181687;23;20013;-68
2023/04/18 01:34:34;;;;;;;18.17;10.30;;;;;;;-145.18;100.00;46642.81;6182872;23;20330;-68
2023/04/18 01:37:00;;;;;;;20.57;11.10;;;;;;;-145.18;100.00;46654.53;6181939;23;20354;-68
2023/04/18 01:39:25;;;;;;;21.03;10.90;;;;;;;-145.18;100.00;46660.41;6182411;23;20005;-68
2023/04/18 01:41:51;;;;;;;16.40;10.03;;;;;;;-145.18;100.00;46625.22;6182293;23;20021;-68
2023/04/18 01:44:16;;;;;;;18.53;11.20;;;;;;;-145.18;100.00;46638.91;6182025;23;20017;-68
2023/04/18 01:46:42;;;;;;;23.77;10.33;;;;;;;-145.18;100.00;46636.94;6181722;23;20431;-68
2023/04/18 01:49:08;;;;;;;18.93;10.40;;;;;;;-145.18;100.00;46638.91;6182319;23;20009;-68
2023/04/18 01:51:34;;;;;;;16.97;10.03;;;;;;;-145.18;100.00;46654.53;6182419;23;20017;-68
2023/04/18 01:53:59;;;;;;;17.57;9.50;;;;;;;-145.18;100.00;46654.53;6182067;23;20685;-68
2023/04/18 01:56:24;;;;;;;18.77;10.70;;;;;;;-145.18;100.00;46650.63;6182352;23;20005;-67
2023/04/18 01:58:50;;;;;;;21.10;9.63;;;;;;;-145.18;100.00;46662.34;6155371;23;20395;-68
2023/04/18 02:03:50;;;;;;;18.75;9.85;;;;;;;-145.18;100.00;46652.59;6162924;23;20024;-69
2023/04/18 02:06:16;;;;;;;20.70;10.23;;;;;;;-145.18;100.00;46666.25;6181593;23;20200;-68
2023/04/18 02:08:41;;;;;;;19.57;10.30;;;;;;;-145.18;100.00;46660.41;6182177;23;20024;-66
2023/04/18 02:11:06;;;;;;;18.43;9.57;;;;;;;-145.18;100.00;46670.16;6182137;23;20037;-68
2023/04/18 02:13:32;;;;;;;18.27;9.70;;;;;;;-145.18;100.00;46670.16;6181638;23;20100;-68
2023/04/18 02:15:57;;;;;;;17.43;9.93;;;;;;;-145.18;100.00;46691.66;6181758;23;20387;-66
2023/04/18 02:18:24;;;;;;;14.10;9.63;;;;;;;-145.18;100.00;46693.59;6181920;23;20052;-68
2023/04/18 02:20:50;;;;;;;16.07;9.30;;;;;;;-145.18;100.00;46693.59;6182386;23;20005;-68
2023/04/18 02:23:16;;;;;;;17.53;9.50;;;;;;;-145.18;100.00;46699.47;6181440;23;20745;-68
2023/04/18 02:25:42;;;;;;;14.07;8.83;;;;;;;-145.18;100.00;46711.19;6182588;23;20304;-68
2023/04/18 02:28:07;;;;;;;17.33;9.37;;;;;;;-145.18;100.00;46717.03;6181518;23;20346;-68
2023/04/18 02:30:32;;;;;;;18.30;9.17;;;;;;;-145.18;100.00;46722.91;6181768;23;20013;-68
2023/04/18 02:32:58;;;;;;;18.33;9.63;;;;;;;-145.18;100.00;46740.47;6181732;23;20145;-69
2023/04/18 02:35:24;;;;;;;17.97;9.77;;;;;;;-145.18;100.00;46740.47;6182592;23;20013;-69
2023/04/18 02:37:50;;;;;;;18.73;9.23;;;;;;;-145.18;100.00;46742.44;6181645;23;20040;-68
2023/04/18 02:40:16;;;;;;;18.93;9.67;;;;;;;-145.18;100.00;46777.59;6155272;23;20302;-68
2023/04/18 02:42:41;;;;;;;18.93;9.90;;;;;;;-145.18;100.00;46769.78;6181873;23;20005;-68
2023/04/18 02:45:07;;;;;;;16.50;9.77;;;;;;;-145.18;100.00;46793.22;6181893;23;20009;-68
2023/04/18 02:47:33;;;;;;;17.73;9.60;;;;;;;-145.18;100.00;46789.31;6181553;23;20005;-67
2023/04/18 02:49:58;;;;;;;15.80;8.73;;;;;;;-145.18;100.00;46777.59;6181937;23;20239;-68
2023/04/18 02:52:24;;;;;;;15.67;8.80;;;;;;;-145.18;100.00;46795.19;6181682;23;20009;-68
2023/04/18 02:54:49;;;;;;;19.17;8.30;;;;;;;-145.18;100.00;46808.84;6182059;23;20036;-68
2023/04/18 02:57:14;;;;;;;12.73;8.40;;;;;;;-145.18;100.00;46840.09;6181581;23;20028;-68
2023/04/18 02:59:40;;;;;;;17.03;8.80;;;;;;;-145.18;100.00;46865.50;6182126;23;20343;-68
2023/04/18 03:02:05;;;;;;;15.97;8.33;;;;;;;-145.18;100.00;46861.59;6179350;23;20009;-68
2023/04/18 03:04:30;;;;;;;17.03;9.10;;;;;;;-145.18;100.00;46865.50;6152162;23;20017;-68
2023/04/18 03:06:58;;;;;;;20.80;8.80;;;;;;;-145.18;100.00;46877.22;6152240;23;20005;-68
2023/04/18 03:09:24;;;;;;;16.37;8.23;;;;;;;-145.18;100.00;46855.72;6152184;23;20016;-68
2023/04/18 03:11:49;;;;;;;18.67;8.20;;;;;;;-145.18;100.00;46873.31;6153455;23;20282;-68
2023/04/18 03:14:14;;;;;;;16.80;8.87;;;;;;;-145.18;100.00;46898.72;6153370;23;20232;-68
2023/04/18 03:16:40;;;;;;;13.37;7.80;;;;;;;-145.18;100.00;46904.56;6154257;23;20467;-68
2023/04/18 03:19:05;;;;;;;17.03;8.03;;;;;;;-145.18;100.00;46890.91;6153684;23;20013;-68
2023/04/18 03:21:31;;;;;;;15.03;7.80;;;;;;;-145.18;100.00;46904.56;6154093;23;20091;-68
2023/04/18 03:23:56;;;;;;;14.57;7.77;;;;;;;-145.18;100.00;46879.19;6153735;23;20020;-68
2023/04/18 03:26:22;;;;;;;12.97;7.80;;;;;;;-145.18;100.00;46877.22;6153749;23;20009;-68
2023/04/18 03:28:48;;;;;;;15.50;8.50;;;;;;;-145.18;100.00;46910.44;6153710;23;20040;-68
2023/04/18 03:31:13;;;;;;;14.80;8.30;;;;;;;-145.18;100.00;46885.03;6127616;23;20244;-68
2023/04/18 03:33:41;;;;;;;12.63;7.77;;;;;;;-145.18;100.00;46869.41;6153571;23;20009;-68
2023/04/18 03:36:07;;;;;;;16.70;8.30;;;;;;;-145.18;100.00;46894.81;6153756;23;20017;-68
2023/04/18 03:38:32;;;;;;;14.67;8.90;;;;;;;-145.18;100.00;46877.22;6153430;23;20883;-68
2023/04/18 03:40:57;;;;;;;18.40;8.93;;;;;;;-145.18;100.00;46873.31;6154022;23;20033;-68
2023/04/18 03:43:23;;;;;;;14.57;8.37;;;;;;;-145.18;100.00;46863.53;6153213;23;20009;-68
2023/04/18 03:45:48;;;;;;;15.83;8.57;;;;;;;-145.18;100.00;46861.59;6153641;23;20100;-68
2023/04/18 03:48:14;;;;;;;20.47;8.53;;;;;;;-145.18;100.00;46853.78;6153404;23;20009;-68
2023/04/18 03:50:40;;;;;;;16.73;8.17;;;;;;;-145.18;100.00;46847.91;6153950;23;20017;-68
2023/04/18 03:53:05;;;;;;;17.27;7.67;;;;;;;-145.18;100.00;46853.78;6153357;23;20495;-68
2023/04/18 03:55:32;;;;;;;18.73;8.63;;;;;;;-145.18;100.00;46845.97;6153841;23;20380;-68
2023/04/18 03:57:58;;;;;;;14.93;8.40;;;;;;;-145.18;100.00;46832.28;6153660;23;20009;-68
2023/04/18 04:00:24;;;;;;;14.07;8.00;;;;;;;-145.18;100.00;46859.63;6153613;23;20219;-68
2023/04/18 04:02:49;;;;;;;16.17;8.33;;;;;;;-145.18;100.00;46840.09;6153237;23;20338;-68
2023/04/18 04:05:15;;;;;;;16.93;8.70;;;;;;;-145.18;100.00;46818.63;6153461;23;20290;-68
2023/04/18 04:07:40;;;;;;;15.67;8.43;;;;;;;-145.18;100.00;46803.00;6153451;23;20043;-68
2023/04/18 04:10:06;;;;;;;15.53;8.57;;;;;;;-145.18;100.00;46793.22;6153460;23;20005;-68
2023/04/18 04:12:31;;;;;;;16.97;8.83;;;;;;;-145.18;100.00;46777.59;6153397;23;20343;-68
2023/04/18 04:14:57;;;;;;;16.30;8.60;;;;;;;-145.18;100.00;46746.34;6153618;23;20010;-68
2023/04/18 04:17:22;;;;;;;15.57;8.63;;;;;;;-145.18;100.00;46738.53;6152779;23;20320;-68
2023/04/18 04:19:49;;;;;;;17.30;9.03;;;;;;;-145.18;100.00;46722.91;6153307;23;20016;-68
2023/04/18 04:22:15;;;;;;;14.67;8.40;;;;;;;-145.18;100.00;46715.09;6151974;23;20017;-68
2023/04/18 04:24:40;;;;;;;17.13;9.67;;;;;;;-145.18;100.00;46719.00;6153340;23;20342;-68
2023/04/18 04:27:06;;;;;;;16.43;8.70;;;;;;;-145.18;100.00;46703.38;6152452;23;20012;-68
2023/04/18 04:29:32;;;;;;;17.13;8.57;;;;;;;-145.18;100.00;46697.50;6152359;23;20009;-68
2023/04/18 04:31:58;;;;;;;13.63;8.67;;;;;;;-145.18;100.00;46699.47;6152635;23;20370;-68
2023/04/18 04:34:23;;;;;;;17.00;9.13;;;;;;;-145.18;100.00;46693.59;6102363;23;20066;-68
2023/04/18 04:36:49;;;;;;;16.10;8.37;;;;;;;-145.18;100.00;46683.84;6153051;23;20233;-68
2023/04/18 04:39:16;;;;;;;16.33;8.70;;;;;;;-145.18;100.00;46683.84;6153143;23;20016;-68
2023/04/18 04:41:41;;;;;;;19.03;8.97;;;;;;;-145.18;100.00;46689.69;6153455;23;20287;-68
2023/04/18 04:44:08;;;;;;;13.33;8.43;;;;;;;-145.18;100.00;46689.69;6152654;23;20255;-68
2023/04/18 04:46:38;;;;;;;16.87;9.00;;;;;;;-145.18;100.00;46683.84;6127234;23;20435;-68
2023/04/18 04:49:03;;;;;;;16.50;9.17;;;;;;;-145.18;100.00;46679.94;6152484;23;20302;-68
2023/04/18 04:51:29;;;;;;;16.83;9.27;;;;;;;-145.18;100.00;46664.31;6152412;23;20746;-68
2023/04/18 04:53:54;;;;;;;15.90;9.47;;;;;;;-145.18;100.00;46670.16;6152873;23;20331;-68
2023/04/18 04:56:19;;;;;;;18.77;9.23;;;;;;;-145.18;100.00;46672.13;6152960;23;20224;-69
2023/04/18 04:58:46;;;;;;;17.40;8.97;;;;;;;-145.18;100.00;46672.13;6153021;23;20013;-68
2023/04/18 05:01:11;;;;;;;17.97;9.80;;;;;;;-145.18;100.00;46662.34;6127195;23;20009;-68
2023/04/18 05:03:37;;;;;;;16.00;9.50;;;;;;;-145.18;100.00;46664.31;6152659;23;20260;-68
2023/04/18 05:06:02;;;;;;;16.63;8.67;;;;;;;-145.18;100.00;46656.50;6149775;23;20014;-68
2023/04/18 05:08:29;;;;;;;15.33;8.97;;;;;;;-145.18;100.00;46666.25;6152286;23;20398;-68
2023/04/18 05:10:54;;;;;;;17.67;9.47;;;;;;;-145.18;100.00;46652.59;6152575;23;20240;-68
2023/04/18 05:13:20;;;;;;;15.93;9.50;;;;;;;-145.18;100.00;46656.50;6150872;23;20009;-68
2023/04/18 05:15:45;;;;;;;17.13;10.03;;;;;;;-145.18;100.00;46652.59;6152666;23;20006;-68
2023/04/18 05:18:12;;;;;;;23.10;9.87;;;;;;;-145.18;100.00;46656.50;6143529;23;20014;-68
2023/04/18 05:20:38;;;;;;;19.83;10.07;;;;;;;-145.18;100.00;46654.53;6153319;23;20010;-68
2023/04/18 05:23:03;;;;;;;16.17;9.47;;;;;;;-145.18;100.00;46668.22;6152154;23;20239;-68
2023/04/18 05:25:30;;;;;;;16.93;9.40;;;;;;;-145.18;100.00;46664.31;6152754;23;20022;-68
2023/04/18 05:27:55;;;;;;;14.80;9.17;;;;;;;-145.18;100.00;46672.13;6152435;23;20006;-68
2023/04/18 05:30:21;;;;;;;20.80;9.07;;;;;;;-145.18;100.00;46666.25;6152271;23;20231;-68
2023/04/18 05:32:46;;;;;;;19.80;9.70;;;;;;;-145.18;100.00;46670.16;6152409;23;20450;-68
2023/04/18 05:35:11;;;;;;;14.47;8.90;;;;;;;-145.18;100.00;46670.16;6125106;23;20108;-67
2023/04/18 05:37:37;;;;;;;16.13;9.23;;;;;;;-145.18;100.00;46674.06;6152014;23;20009;-68
2023/04/18 05:40:04;;;;;;;18.63;10.03;;;;;;;-145.18;100.00;46687.75;6151714;23;20084;-68
2023/04/18 05:42:29;;;;;;;16.07;9.23;;;;;;;-145.18;100.00;46687.75;6151752;23;20005;-68
2023/04/18 05:44:54;;;;;;;21.33;9.47;;;;;;;-145.18;100.00;46677.97;6152089;23;20343;-68
2023/04/18 05:47:20;;;;;;;16.87;9.00;;;;;;;-145.18;100.00;46681.88;6151603;23;20335;-68
2023/04/18 05:49:45;;;;;;;16.80;9.10;;;;;;;-145.18;100.00;46674.06;6151648;23;20029;-68
2023/04/18 05:52:10;;;;;;;17.77;9.70;;;;;;;-145.18;100.00;46683.84;6151931;23;20434;-68
2023/04/18 05:54:36;;;;;;;13.67;8.57;;;;;;;-145.18;100.00;46685.78;6151550;23;20009;-68
2023/04/18 05:57:01;;;;;;;16.60;9.73;;;;;;;-145.18;100.00;46679.94;6125624;23;20013;-68
2023/04/18 05:59:27;;;;;;;19.93;9.90;;;;;;;-145.18;100.00;46679.94;6151078;23;20092;-68
2023/04/18 06:01:52;;;;;;;19.30;9.33;;;;;;;-145.18;100.00;46672.13;6152062;23;20084;-68
2023/04/18 06:04:18;;;;;;;20.87;10.67;;;;;;;-145.18;100.00;46676.03;6151217;23;20024;-68
2023/04/18 06:06:44;;;;;;;22.57;10.10;;;;;;;-145.18;100.00;46685.78;6125849;23;20018;-68
2023/04/18 06:09:09;;;;;;;20.27;10.30;;;;;;;-145.18;100.00;46681.88;6151494;23;20014;-68
2023/04/18 06:11:35;;;;;;;19.83;11.67;;;;;;;-145.18;100.00;46676.03;6151988;23;20005;-68
2023/04/18 06:14:01;;;;;;;19.07;9.37;;;;;;;-145.18;100.00;46674.06;6150164;23;20021;-68
2023/04/18 06:16:26;;;;;;;19.50;10.03;;;;;;;-145.18;100.00;46687.75;6152192;23;20009;-68
2023/04/18 06:18:52;;;;;;;23.00;10.50;;;;;;;-145.18;100.00;46679.94;6151821;23;20013;-68
2023/04/18 06:21:17;;;;;;;21.87;10.93;;;;;;;-145.18;100.00;46681.88;6151865;23;20009;-68
2023/04/18 06:23:42;;;;;;;16.60;9.73;;;;;;;-145.18;100.00;46674.06;6151845;23;20006;-68
2023/04/18 06:26:08;;;;;;;18.07;9.80;;;;;;;-145.18;100.00;46683.84;6151713;23;20012;-68
2023/04/18 06:28:34;;;;;;;18.27;10.73;;;;;;;-145.18;100.00;46668.22;6151483;23;20234;-68
2023/04/18 06:30:59;;;;;;;17.57;9.97;;;;;;;-145.18;100.00;46685.78;6152197;23;20098;-68
2023/04/18 06:33:24;;;;;;;20.33;9.73;;;;;;;-145.18;100.00;46681.88;6151759;23;20006;-68
2023/04/18 06:35:51;;;;;;;15.30;9.43;;;;;;;-145.18;100.00;46676.03;6152234;23;20065;-68
2023/04/18 06:38:16;;;;;;;16.23;9.53;;;;;;;-145.18;100.00;46683.84;6151423;23;20016;-68
2023/04/18 06:40:41;;;;;;;16.43;9.37;;;;;;;-145.18;100.00;46677.97;6151958;23;20236;-68
2023/04/18 06:43:07;;;;;;;18.87;9.83;;;;;;;-145.18;100.00;46697.50;6151097;23;20020;-68
2023/04/18 06:45:32;;;;;;;17.77;9.23;;;;;;;-145.18;100.00;46687.75;6152309;23;20089;-68
2023/04/18 06:48:01;;;;;;;16.37;9.83;;;;;;;-145.18;100.00;46695.56;6153589;23;20857;-68
2023/04/18 06:50:26;;;;;;;16.33;8.90;;;;;;;-145.18;100.00;46701.41;6154122;23;20032;-68
2023/04/18 06:52:52;;;;;;;15.87;9.13;;;;;;;-145.18;100.00;46713.13;6153652;23;20239;-68
2023/04/18 06:55:17;;;;;;;19.30;9.27;;;;;;;-145.18;100.00;46705.31;6153339;23;20660;-68
2023/04/18 06:57:42;;;;;;;20.10;10.40;;;;;;;-145.18;100.00;46699.47;6153808;23;20010;-68
2023/04/18 07:00:09;;;;;;;18.63;8.77;;;;;;;-145.18;100.00;46720.94;6153463;23;20363;-68
2023/04/18 07:02:36;;;;;;;16.67;8.90;;;;;;;-145.18;100.00;46720.94;6153752;23;20494;-68
2023/04/18 07:05:02;;;;;;;12.80;8.13;;;;;;;-145.18;100.00;46715.09;6153252;23;20255;-68
2023/04/18 07:07:27;;;;;;;14.80;9.60;;;;;;;-145.18;100.00;46715.09;6153901;23;20535;-68
2023/04/18 07:09:53;;;;;;;16.10;9.43;;;;;;;-145.18;100.00;46703.38;6153651;23;20020;-68
2023/04/18 07:12:19;;;;;;;15.63;9.93;;;;;;;-145.18;100.00;46707.28;6153666;23;20014;-68
2023/04/18 07:14:45;;;;;;;16.73;8.40;;;;;;;-145.18;100.00;46719.00;6127533;23;20423;-68
2023/04/18 07:17:10;;;;;;;17.83;9.70;;;;;;;-145.18;100.00;46695.56;6153500;23;20009;-68
2023/04/18 07:19:35;;;;;;;16.00;8.83;;;;;;;-145.18;100.00;46722.91;6153731;23;20064;-68
2023/04/18 07:22:01;;;;;;;15.93;8.83;;;;;;;-145.18;100.00;46719.00;6153247;23;20084;-68
2023/04/18 07:24:26;;;;;;;17.70;9.10;;;;;;;-145.18;100.00;46720.94;6153318;23;20020;-68
2023/04/18 07:26:52;;;;;;;21.17;9.87;;;;;;;-145.18;100.00;46715.09;6153557;23;20350;-68
2023/04/18 07:29:21;;;;;;;15.87;8.47;;;;;;;-145.18;100.00;46711.19;6152743;23;20005;-68
2023/04/18 07:31:47;;;;;;;14.40;8.43;;;;;;;-145.18;100.00;46738.53;6153745;23;20012;-68
2023/04/18 07:34:12;;;;;;;17.73;9.97;;;;;;;-145.18;100.00;46720.94;6153135;23;20455;-68
2023/04/18 07:36:39;;;;;;;18.63;9.17;;;;;;;-145.18;100.00;46728.75;6153609;23;20319;-68
2023/04/18 07:39:04;;;;;;;17.47;9.33;;;;;;;-145.18;100.00;46709.22;6153234;23;20012;-68
2023/04/18 07:41:30;;;;;;;12.83;8.37;;;;;;;-145.18;100.00;46693.59;6153815;23;20232;-68
2023/04/18 07:43:55;;;;;;;16.17;9.33;;;;;;;-145.18;100.00;46697.50;6152667;23;20013;-68
2023/04/18 07:46:21;;;;;;;16.73;9.53;;;;;;;-145.18;100.00;46695.56;6153154;23;20017;-68
2023/04/18 07:48:46;;;;;;;15.80;9.13;;;;;;;-145.18;100.00;46691.66;6153227;23;20010;-68
2023/04/18 07:51:11;;;;;;;13.87;8.40;;;;;;;-145.18;100.00;46703.38;6153277;23;20040;-68
2023/04/18 07:53:37;;;;;;;17.80;8.40;;;;;;;-145.18;100.00;46687.75;6153455;23;20013;-68
2023/04/18 07:56:02;;;;;;;16.70;8.90;;;;;;;-145.18;100.00;46693.59;6153086;23;20013;-68
2023/04/18 07:58:28;;;;;;;15.23;8.67;;;;;;;-145.18;100.00;46709.22;6153116;23;20056;-68
2023/04/18 08:00:53;;;;;;;15.80;8.87;;;;;;;-145.18;100.00;46717.03;6152883;23;20010;-68
2023/04/18 08:03:19;;;;;;;13.23;8.30;;;;;;;-145.18;100.00;46719.00;6152717;23;20343;-68
2023/04/18 08:05:44;;;;;;;14.07;9.30;;;;;;;-145.18;100.00;46711.19;6153385;23;20010;-68
2023/04/18 08:08:12;;;;;;;15.23;8.77;;;;;;;-145.18;100.00;46736.56;6153004;23;20013;-68
2023/04/18 08:10:38;;;;;;;14.87;8.40;;;;;;;-145.18;100.00;46750.25;6153900;23;19997;-68
2023/04/18 08:13:03;;;;;;;14.20;7.93;;;;;;;-145.18;100.00;46742.44;6152955;23;20331;-68
2023/04/18 08:15:31;;;;;;;14.77;8.23;;;;;;;-145.18;100.00;46701.41;6153518;23;20024;-68
2023/04/18 08:17:57;;;;;;;13.77;8.50;;;;;;;-145.18;100.00;46713.13;6153573;23;20010;-68
2023/04/18 08:20:22;;;;;;;15.97;8.27;;;;;;;-145.18;100.00;46728.75;6153242;23;20541;-68
2023/04/18 08:22:48;;;;;;;14.97;8.30;;;;;;;-145.18;100.00;46754.16;6153433;23;20328;-68
2023/04/18 08:25:13;;;;;;;14.77;8.00;;;;;;;-145.18;100.00;46748.28;6126625;23;20023;-68
2023/04/18 08:27:38;;;;;;;14.50;8.23;;;;;;;-145.18;100.00;46760.00;6153125;23;20355;-69
2023/04/18 08:30:05;;;;;;;17.77;8.47;;;;;;;-145.18;100.00;46758.06;6152720;23;20009;-68
2023/04/18 08:32:31;;;;;;;12.63;7.57;;;;;;;-145.18;100.00;46748.28;6153022;23;20013;-68
2023/04/18 08:34:57;;;;;;;15.60;7.33;;;;;;;-145.18;100.00;46765.88;6153101;23;20322;-68
2023/04/18 08:37:22;;;;;;;13.63;7.90;;;;;;;-145.18;100.00;46754.16;6152811;23;20088;-68
2023/04/18 08:39:47;;;;;;;12.00;7.03;;;;;;;-145.18;100.00;46740.47;6153033;23;20011;-68
2023/04/18 08:42:18;;;;;;;13.27;7.27;;;;;;;-145.18;100.00;46724.84;6126738;23;20024;-68
2023/04/18 08:44:44;;;;;;;13.40;7.63;;;;;;;-145.18;100.00;46732.66;6153289;23;20374;-68
2023/04/18 08:47:11;;;;;;;17.83;6.90;;;;;;;-145.18;100.00;46736.56;6152927;23;20235;-68
2023/04/18 08:49:37;;;;;;;12.80;7.30;;;;;;;-145.18;100.00;46761.97;6152848;23;20232;-68
2023/04/18 08:52:12;;;;;;;12.40;8.00;;;;;;;-145.18;100.00;46777.59;6126643;23;20330;-69
2023/04/18 08:54:40;;;;;;;;;;;;;;;-145.18;100.00;46781.50;6153510;23;20032;-68
2023/04/18 08:57:07;;;;;;;11.80;6.93;;;;;;;-145.18;100.00;46781.50;6152949;23;19912;-68
2023/04/18 08:59:34;;;;;;;13.00;6.97;;;;;;;-145.18;100.00;46783.47;6152589;23;20314;-68
2023/04/18 09:02:01;;;;;;;14.70;7.77;;;;;;;-145.18;100.00;46785.41;6152519;23;20364;-68
2023/04/18 09:04:35;;;;;;;12.67;7.20;;;;;;;-145.18;100.00;46803.00;6152763;23;20354;-68
2023/04/18 09:07:05;;;;;;;12.53;7.33;;;;;;;-145.18;100.00;46781.50;6152628;23;20232;-68
2023/04/18 09:09:50;;;;;;;11.07;6.83;;;;;;;-145.18;100.00;46779.56;6152467;23;20223;-68
2023/04/18 09:12:24;;;;;;;12.30;7.20;;;;;;;-145.18;100.00;46775.66;6152697;23;20235;-68
2023/04/18 09:14:55;;;;;;;12.87;7.27;;;;;;;-145.18;100.00;46785.41;6152650;23;20224;-69
2023/04/18 09:17:32;;;;;;;11.87;7.13;;;;;;;-145.18;100.00;46793.22;6150917;23;20298;-69
2023/04/18 09:19:59;;;;;;;13.73;7.17;;;;;;;-145.18;100.00;46765.88;6149643;23;20226;-69
2023/04/18 09:22:25;;;;;;;12.00;7.10;;;;;;;-145.18;100.00;46781.50;6101880;23;20828;-68
2023/04/18 09:24:56;;;;;;;14.10;7.60;;;;;;;-145.18;100.00;46779.56;6152033;23;20704;-68
2023/04/18 09:27:21;;;;;;;10.47;5.80;;;;;;;-145.18;100.00;46797.13;6151377;23;20279;-68
2023/04/18 09:29:50;;;;;;;11.10;6.03;;;;;;;-145.18;100.00;46767.84;6150792;23;20232;-68
2023/04/18 09:32:25;;;;;;;9.10;5.97;;;;;;;-145.18;100.00;46785.41;6150985;23;20064;-68
2023/04/18 09:34:53;;;;;;;8.27;6.03;;;;;;;-145.18;100.00;46781.50;6151425;23;20005;-69
2023/04/18 09:37:20;;;;;;;8.60;5.50;;;;;;;-145.18;100.00;46810.81;6151323;23;20006;-68
2023/04/18 09:39:45;;;;;;;10.23;6.47;;;;;;;-145.18;100.00;46838.16;6151965;23;19997;-69
2023/04/18 09:42:11;;;;;;;23.63;6.70;;;;;;;-145.18;100.00;46838.16;6151582;23;20335;-69
2023/04/18 09:44:38;;;;;;;12.03;6.27;;;;;;;-145.18;100.00;46982.72;6151476;23;20017;-69
2023/04/18 09:47:06;;;;;;;9.40;6.00;;;;;;;-145.18;100.00;47010.06;6151887;23;20331;-69
2023/04/18 09:49:32;;;;;;;11.03;6.20;;;;;;;-145.18;100.00;47164.38;6152571;23;20330;-69
2023/04/18 09:51:59;;;;;;;9.70;6.37;;;;;;;-145.18;100.00;47435.94;6152216;23;20089;-69
2023/04/18 09:54:28;;;;;;;12.63;6.33;;;;;;;-145.18;100.00;47381.25;6151842;23;20013;-69
2023/04/18 09:56:55;;;;;;;10.23;6.23;;;;;;;-145.18;100.00;47473.06;6151952;23;20384;-69
2023/04/18 09:59:50;;;;;;;13.50;5.53;;;;;;;-145.18;100.00;47426.19;6150747;23;20507;-69
2023/04/18 10:02:23;;;;;;;9.10;6.23;;;;;;;-145.18;100.00;47400.78;6151331;23;21082;-69
2023/04/18 10:04:50;;;;;;;10.60;5.50;;;;;;;-145.18;100.00;47443.75;6151507;23;20014;-69
2023/04/18 10:07:16;;;;;;;10.43;6.53;;;;;;;-145.18;100.00;47439.84;6151421;23;20037;-68
2023/04/18 10:09:44;;;;;;;7.93;5.90;;;;;;;-145.18;100.00;47498.47;6151493;23;20092;-69
2023/04/18 10:12:14;;;;;;;9.60;6.10;;;;;;;-145.18;100.00;47496.50;6151616;23;20006;-69
2023/04/18 10:14:42;;;;;;;10.13;6.10;;;;;;;-145.18;100.00;47516.06;6151157;23;20016;-69
2023/04/18 10:17:10;;;;;;;10.30;5.80;;;;;;;-145.18;100.00;47543.41;6149812;23;20012;-69
2023/04/18 10:19:40;;;;;;;10.07;6.47;;;;;;;-145.18;100.00;47422.28;6147235;23;20041;-69
2023/04/18 10:22:06;;;;;;;11.93;6.23;;;;;;;-145.18;100.00;47467.22;6151513;23;20076;-69
2023/04/18 10:24:54;;;;;;;8.63;5.77;;;;;;;-145.18;100.00;47443.75;6151302;23;20037;-69
2023/04/18 10:27:47;;;;;;;9.57;6.53;;;;;;;-145.18;100.00;47426.19;6151374;23;20060;-69
2023/04/18 10:30:17;;;;;;;7.07;5.37;;;;;;;-145.18;100.00;47430.09;6151133;23;20016;-69
2023/04/18 10:32:45;;;;;;;8.27;5.07;;;;;;;-145.18;100.00;47467.22;6125514;23;20505;-69
2023/04/18 10:35:10;;;;;;;10.97;5.47;;;;;;;-145.18;100.00;47465.25;6151348;23;20002;-69
2023/04/18 10:37:58;;;;;;;10.37;4.67;;;;;;;-145.18;100.00;47478.94;6151534;23;20016;-69
2023/04/18 10:40:34;;;;;;;7.37;4.70;;;;;;;-145.18;100.00;47516.06;6151193;23;20005;-69
2023/04/18 10:42:59;;;;;;;6.17;4.23;;;;;;;-145.18;100.00;47504.31;6152106;23;20052;-69
2023/04/18 10:45:27;;;;;;;8.67;4.83;;;;;;;-145.18;100.00;47519.97;6151531;23;20089;-69
2023/04/18 10:48:28;;;;;;;9.37;4.07;;;;;;;-145.18;100.00;47500.41;6152106;23;20009;-69
2023/04/18 10:51:13;;;;;;;10.60;3.97;;;;;;;-145.18;100.00;47469.16;6145550;23;20020;-68
2023/04/18 10:53:47;;;;;;;5.97;3.60;;;;;;;-145.18;100.00;47447.66;6151576;23;20024;-69
2023/04/18 10:56:14;;;;;;;7.23;4.40;;;;;;;-145.18;100.00;47434.00;6152174;23;20410;-69
2023/04/18 10:58:42;;;;;;;6.60;3.97;;;;;;;-145.18;100.00;47379.28;6152271;23;20005;-69
2023/04/18 11:01:13;;;;;;;5.67;3.70;;;;;;;-145.18;100.00;47338.25;6151304;23;20012;-69